createdAt,value
2023-05-05T00:00:20.820Z,102049.03
2023-05-05T00:05:24.470Z,102044.22
2023-05-05T00:10:27.004Z,102032.03
2023-05-05T00:15:30.869Z,102036.34
2023-05-05T00:20:33.339Z,102038.72
2023-05-05T00:25:35.879Z,102036.88
2023-05-05T00:30:40.850Z,102041.34
2023-05-05T00:35:43.366Z,102045.28
2023-05-05T00:40:45.913Z,102040.84
2023-05-05T00:45:59.625Z,102043.72
2023-05-05T00:51:02.339Z,102034.53
2023-05-05T00:56:05.611Z,102033.28
2023-05-05T01:01:10.212Z,102027.66
2023-05-05T01:06:31.693Z,102029.22
2023-05-05T01:11:44.773Z,102026.72
2023-05-05T01:16:57.993Z,102014.28
2023-05-05T01:22:04.402Z,102006.28
2023-05-05T01:27:27.248Z,102005.78
2023-05-05T01:32:36.509Z,102011.69
2023-05-05T01:37:46.900Z,101998.59
2023-05-05T01:42:51.707Z,102008.81
2023-05-05T01:47:58.053Z,101994.69
2023-05-05T01:53:02.395Z,102004.06
2023-05-05T01:58:08.121Z,101992.06
2023-05-05T02:03:15.448Z,102001.63
2023-05-05T02:08:18.373Z,101990.09
2023-05-05T02:13:22.653Z,101999.28
2023-05-05T02:18:28.386Z,101988.38
2023-05-05T02:23:32.254Z,101982.50
2023-05-05T02:28:40.798Z,101982.78
2023-05-05T02:33:47.938Z,101984.88
2023-05-05T02:38:56.295Z,101985.91
2023-05-05T02:44:01.929Z,101975.53
2023-05-05T02:49:05.839Z,101974.22
2023-05-05T02:54:08.473Z,101982.63
2023-05-05T02:59:16.480Z,101968.19
2023-05-05T03:04:27.315Z,101964.41
2023-05-05T03:09:37.697Z,101968.31
2023-05-05T03:14:42.821Z,101981.13
2023-05-05T03:19:47.901Z,101972.13
2023-05-05T03:24:53.391Z,101967.94
2023-05-05T03:29:56.418Z,101973.84
2023-05-05T03:35:00.220Z,101979.88
2023-05-05T03:40:02.706Z,101990.59
2023-05-05T03:45:05.823Z,101986.28
2023-05-05T03:50:10.301Z,101995.31
2023-05-05T03:55:12.851Z,101992.19
2023-05-05T04:00:16.384Z,101997.81
2023-05-05T04:05:22.449Z,101987.44
2023-05-05T04:10:25.103Z,101976.09
2023-05-05T04:15:27.615Z,101983.41
2023-05-05T04:20:31.463Z,101990.59
2023-05-05T04:25:33.958Z,101974.63
2023-05-05T04:30:36.458Z,101981.47
2023-05-05T04:35:40.287Z,101994.56
2023-05-05T04:40:42.820Z,101999.41
2023-05-05T04:45:53.497Z,102008.53
2023-05-05T04:50:57.308Z,102006.81
2023-05-05T04:56:01.100Z,102005.09
2023-05-05T05:01:03.593Z,102020.28
2023-05-05T05:06:07.833Z,102022.78
2023-05-05T05:11:10.456Z,102011.06
2023-05-05T05:16:13.053Z,102015.53
2023-05-05T05:21:16.980Z,102010.91
2023-05-05T05:26:19.518Z,102009.06
2023-05-05T05:31:22.011Z,101996.97
2023-05-05T05:36:26.243Z,102014.25
2023-05-05T05:41:28.714Z,102027.06
2023-05-05T05:46:31.254Z,102031.63
2023-05-05T05:51:35.081Z,102026.75
2023-05-05T05:56:37.567Z,102011.38
2023-05-05T06:01:40.432Z,102031.09
2023-05-05T06:06:44.264Z,102028.06
2023-05-05T06:11:46.739Z,102024.13
2023-05-05T06:16:49.297Z,102031.59
2023-05-05T06:21:53.133Z,102042.97
2023-05-05T06:26:55.618Z,102026.97
2023-05-05T06:31:58.087Z,102032.22
2023-05-05T06:37:01.914Z,102038.25
2023-05-05T06:42:04.786Z,102028.16
2023-05-05T06:47:07.730Z,102042.81
2023-05-05T06:52:12.544Z,102023.13
2023-05-05T06:57:15.062Z,102023.47
2023-05-05T07:02:17.555Z,102021.34
2023-05-05T07:07:21.589Z,102039.50
2023-05-05T07:12:24.231Z,102046.72
2023-05-05T07:17:26.768Z,102034.91
2023-05-05T07:22:30.618Z,102058.91
2023-05-05T07:27:33.650Z,102053.84
2023-05-05T07:32:36.338Z,102060.28
2023-05-05T07:37:40.174Z,102054.69
2023-05-05T07:42:42.710Z,102047.38
2023-05-05T07:47:45.348Z,102066.66
2023-05-05T07:52:54.016Z,102051.91
2023-05-05T07:58:03.647Z,102050.75
2023-05-05T08:03:07.780Z,102041.63
2023-05-05T08:08:13.711Z,102045.00
2023-05-05T08:13:16.275Z,102035.13
2023-05-05T08:18:18.926Z,102045.59
2023-05-05T08:23:22.746Z,102045.50
2023-05-05T08:28:25.277Z,102029.88
2023-05-05T08:33:27.743Z,102045.59
2023-05-05T08:38:31.556Z,102054.50
2023-05-05T08:43:35.807Z,102072.47
2023-05-05T08:48:41.344Z,102071.66
2023-05-05T08:53:52.278Z,102064.75
2023-05-05T08:58:57.276Z,102085.56
2023-05-05T09:04:00.489Z,102073.81
2023-05-05T09:09:04.843Z,102072.84
2023-05-05T09:14:07.389Z,102057.03
2023-05-05T09:19:09.877Z,102080.50
2023-05-05T09:24:15.521Z,102065.50
2023-05-05T09:29:21.762Z,102069.94
2023-05-05T09:34:24.471Z,102083.16
2023-05-05T09:39:28.420Z,102064.41
2023-05-05T09:44:35.114Z,102074.94
2023-05-05T09:49:39.488Z,102058.50
2023-05-05T09:54:44.248Z,102068.84
2023-05-05T09:59:56.410Z,102061.34
2023-05-05T10:05:12.722Z,102048.88
2023-05-05T10:10:19.272Z,102052.34
2023-05-05T10:15:22.837Z,102048.66
2023-05-05T10:20:26.752Z,102047.63
2023-05-05T10:25:34.064Z,102035.06
2023-05-05T10:30:44.135Z,102053.88
2023-05-05T10:35:51.566Z,102022.31
2023-05-05T10:40:58.596Z,102030.44
2023-05-05T10:46:01.350Z,102031.97
2023-05-05T10:51:35.223Z,102047.31
2023-05-05T10:56:43.745Z,102043.94
2023-05-05T11:01:46.356Z,102044.56
2023-05-05T11:07:23.101Z,102042.59
2023-05-05T11:12:26.911Z,102033.34
2023-05-05T11:17:46.245Z,102043.28
2023-05-05T11:23:23.077Z,102043.94
2023-05-05T11:28:29.944Z,102033.72
2023-05-05T11:33:33.665Z,102032.78
2023-05-05T11:38:49.273Z,102016.09
2023-05-05T11:44:09.630Z,101997.63
2023-05-05T11:49:12.170Z,102017.53
2023-05-05T11:54:20.726Z,102038.88
2023-05-05T11:59:24.588Z,102005.88
2023-05-05T12:04:27.306Z,102004.28
2023-05-05T12:09:29.891Z,102019.44
2023-05-05T12:14:34.380Z,101994.84
2023-05-05T12:19:36.894Z,101997.31
2023-05-05T12:24:39.496Z,101985.66
2023-05-05T12:29:43.331Z,101968.06
2023-05-05T12:34:46.103Z,101957.44
2023-05-05T12:39:48.840Z,101957.66
2023-05-05T12:44:52.828Z,101952.09
2023-05-05T12:49:55.348Z,101958.66
2023-05-05T12:54:59.452Z,101939.97
2023-05-05T13:00:13.810Z,101944.00
2023-05-05T13:05:16.293Z,101932.81
2023-05-05T13:10:18.842Z,101918.84
2023-05-05T13:15:22.685Z,101917.31
2023-05-05T13:20:25.167Z,101900.28
2023-05-05T13:25:27.913Z,101903.09
2023-05-05T13:30:31.736Z,101908.13
2023-05-05T13:35:34.231Z,101904.38
2023-05-05T13:40:36.841Z,101881.00
2023-05-05T13:45:41.901Z,101886.84
2023-05-05T13:50:44.605Z,101874.75
2023-05-05T13:55:47.121Z,101870.22
2023-05-05T14:00:51.515Z,101868.66
2023-05-05T14:05:54.031Z,101865.84
2023-05-05T14:10:57.839Z,101872.19
2023-05-05T14:16:01.766Z,101889.63
2023-05-05T14:21:04.457Z,101875.22
2023-05-05T14:26:08.762Z,101891.69
2023-05-05T14:31:12.678Z,101874.75
2023-05-05T14:36:15.178Z,101882.22
2023-05-05T14:41:17.690Z,101866.63
2023-05-05T14:46:21.634Z,101859.72
2023-05-05T14:51:24.483Z,101856.97
2023-05-05T14:56:28.118Z,101845.81
2023-05-05T15:01:32.111Z,101858.66
2023-05-05T15:06:34.640Z,101845.53
2023-05-05T15:11:37.813Z,101849.81
2023-05-05T15:16:41.690Z,101852.94
2023-05-05T15:21:44.220Z,101857.13
2023-05-05T15:26:46.698Z,101861.72
2023-05-05T15:31:50.639Z,101864.47
2023-05-05T15:36:53.164Z,101874.41
2023-05-05T15:41:55.871Z,101862.84
2023-05-05T15:46:59.785Z,101870.63
2023-05-05T15:52:02.341Z,101882.63
2023-05-05T15:57:04.947Z,101876.97
2023-05-05T16:02:08.759Z,101886.38
2023-05-05T16:07:11.289Z,101874.72
2023-05-05T16:12:16.729Z,101866.28
2023-05-05T16:17:22.263Z,101856.88
2023-05-05T16:22:25.244Z,101853.97
2023-05-05T16:27:27.751Z,101845.84
2023-05-05T16:32:31.718Z,101849.75
2023-05-05T16:37:34.306Z,101851.28
2023-05-05T16:42:36.824Z,101833.34
2023-05-05T16:47:40.921Z,101820.34
2023-05-05T16:52:43.430Z,101826.19
2023-05-05T16:57:47.138Z,101821.16
2023-05-05T17:02:51.089Z,101810.00
2023-05-05T17:07:53.595Z,101824.50
2023-05-05T17:12:56.166Z,101816.84
2023-05-05T17:18:00.140Z,101813.06
2023-05-05T17:23:03.316Z,101806.69
2023-05-05T17:28:07.319Z,101804.84
2023-05-05T17:33:11.306Z,101802.44
2023-05-05T17:38:13.875Z,101805.38
2023-05-05T17:43:16.382Z,101794.06
2023-05-05T17:48:20.277Z,101806.84
2023-05-05T17:53:23.085Z,101822.47
2023-05-05T17:58:25.624Z,101814.59
2023-05-05T18:03:29.601Z,101809.66
2023-05-05T18:08:32.153Z,101802.69
2023-05-05T18:13:34.649Z,101790.41
2023-05-05T18:18:38.566Z,101774.88
2023-05-05T18:23:41.293Z,101780.69
2023-05-05T18:28:43.781Z,101771.28
2023-05-05T18:33:47.899Z,101789.06
2023-05-05T18:38:50.901Z,101792.31
2023-05-05T18:43:53.427Z,101793.31
2023-05-05T18:48:57.457Z,101814.00
2023-05-05T18:54:00.802Z,101812.66
2023-05-05T18:59:04.613Z,101831.75
2023-05-05T19:04:22.543Z,101824.06
2023-05-05T19:09:29.596Z,101823.75
2023-05-05T19:14:32.100Z,101816.28
2023-05-05T19:19:35.978Z,101825.22
2023-05-05T19:24:38.521Z,101821.53
2023-05-05T19:29:41.240Z,101809.38
2023-05-05T19:34:45.105Z,101824.03
2023-05-05T19:39:48.583Z,101817.41
2023-05-05T19:44:52.126Z,101814.66
2023-05-05T19:49:55.976Z,101807.47
2023-05-05T19:54:59.772Z,101806.81
2023-05-05T20:00:02.329Z,101806.44
2023-05-05T20:05:07.108Z,101810.50
2023-05-05T20:10:10.676Z,101832.47
2023-05-05T20:15:13.493Z,101816.66
2023-05-05T20:20:19.962Z,101819.25
2023-05-05T20:25:22.499Z,101834.19
2023-05-05T20:30:25.012Z,101837.06
2023-05-05T20:35:28.844Z,101826.81
2023-05-05T20:40:31.554Z,101812.03
2023-05-05T20:45:34.605Z,101800.75
2023-05-05T20:50:39.319Z,101814.84
2023-05-05T20:55:42.038Z,101806.16
2023-05-05T21:00:44.564Z,101805.38
2023-05-05T21:05:48.427Z,101798.59
2023-05-05T21:10:50.953Z,101803.13
2023-05-05T21:15:53.439Z,101806.50
2023-05-05T21:20:57.243Z,101806.81
2023-05-05T21:25:59.932Z,101798.84
2023-05-05T21:31:20.489Z,101805.63
2023-05-05T21:36:25.422Z,101805.88
2023-05-05T21:41:27.933Z,101782.41
2023-05-05T21:46:30.434Z,101781.41
2023-05-05T21:51:34.890Z,101781.53
2023-05-05T21:56:38.081Z,101781.63
2023-05-05T22:01:40.693Z,101782.69
2023-05-05T22:06:44.611Z,101788.06
2023-05-05T22:11:47.438Z,101762.88
2023-05-05T22:16:49.983Z,101774.84
2023-05-05T22:21:54.157Z,101771.53
2023-05-05T22:26:57.322Z,101767.56
2023-05-05T22:31:59.825Z,101773.47
2023-05-05T22:37:03.646Z,101782.31
2023-05-05T22:42:06.501Z,101777.94
2023-05-05T22:47:09.124Z,101784.44
2023-05-05T22:52:13.620Z,101785.38
2023-05-05T22:57:16.249Z,101780.13
2023-05-05T23:02:18.736Z,101776.88
2023-05-05T23:07:22.631Z,101771.03
2023-05-05T23:12:25.094Z,101769.91
2023-05-05T23:17:27.599Z,101761.66
2023-05-05T23:22:31.416Z,101754.38
2023-05-05T23:27:33.973Z,101752.88
2023-05-05T23:32:36.486Z,101751.88
2023-05-05T23:37:40.302Z,101752.38
2023-05-05T23:42:42.769Z,101746.00
2023-05-05T23:47:45.258Z,101745.50
2023-05-05T23:52:49.083Z,101741.69
2023-05-05T23:57:53.034Z,101734.75
